Airfield :
LOGIN :

Register | Disclaimer

   EN    FR    IT 

 










Legend :    VFR   Marginal VFR   IFR   Intensive IFR   Very Intensive IFR
Visi :
Ceiling :
>= 8 km
>= 3000ft
5 to 8 km
1000 to 3000 ft
1500m to 5 km
500 to 1000 ft
800 to 1500m
200 to 500 ft
< 800m
< 200 ft
Symbols :   Thunderstorms  Fog  Heavy snow  Heavy precipitations  Wind > 20 kt
SIGMETs :     Misc.  Thunderstorms  Icing  Turbulence  Mountain Waves  Volcanic Ashes







- Airport Elevation : 425 ft
- IATA code : DTM


EDLW - Dortmund

CURRENT METAR :
  • 211620Z 21006KT 9999 FEW020 SCT047 03/00 Q1016

EXPIRED METARs :
  • 211550Z 20005KT 9999 FEW033 BKN043 02/M00 Q1016
  • 211520Z 19003KT 9999 SCT028 BKN035 03/01 Q1016
  • 211450Z 23004KT 9999 FEW031 BKN035 04/01 Q1016
  • 211420Z 24004KT 9999 FEW030 BKN036 03/00 Q1016
  • 211350Z 26005KT 220V290 9999 FEW010 SCT014 BKN028 03/00 Q1015

TAF TAF EDLW
Valid from the 21 at 12:00 until the 22 at 12:00 UTC


211100Z 2112/2212 26005KT 9999 BKN007
BECMG 2112/2115 SCT020
BECMG 2116/2118 18009KT
BECMG 2201/2204 BKN010
TEMPO 2201/2206 4000 -RA BKN007
PROB30
TEMPO 2201/2204 2500 -SNRA
No reported NOTAMs for that airfield.



MET'MAP, your aeronautical weather chart ! - Copyright ORBIFLY December 2007 - Disclaimer

ORBIFLY MET'MAP TEAM :

Programming & Development : Alexandra Zaïnal
Concept & Development : Baudouin d'Aumeries
Co-Development & Prog : Marc-Olivier Méhu
Technical & hardware support : Manuel Goepfert

Contact : metmap@orbifly.com




SOURCES & CREDITS :

   NOAA